createdAt,value
2024-01-19T00:01:34.077Z,14.40
2024-01-19T00:04:02.315Z,14.30
2024-01-19T00:06:30.748Z,14.57
2024-01-19T00:08:59.603Z,16.10
2024-01-19T00:11:28.020Z,15.73
2024-01-19T00:13:56.262Z,17.00
2024-01-19T00:16:25.862Z,18.47
2024-01-19T00:18:54.074Z,15.73
2024-01-19T00:21:22.317Z,16.70
2024-01-19T00:23:51.178Z,12.57
2024-01-19T00:26:20.041Z,18.30
2024-01-19T00:28:49.045Z,14.07
2024-01-19T00:31:17.489Z,14.73
2024-01-19T00:33:47.935Z,14.90
2024-01-19T00:36:17.122Z,16.40
2024-01-19T00:38:45.698Z,21.67
2024-01-19T00:41:14.327Z,19.50
2024-01-19T00:43:43.116Z,15.70
2024-01-19T00:46:11.284Z,17.17
2024-01-19T00:48:41.069Z,16.80
2024-01-19T00:51:11.541Z,19.03
2024-01-19T00:53:39.913Z,17.50
2024-01-19T00:56:10.019Z,20.93
2024-01-19T00:58:40.205Z,20.83
2024-01-19T01:01:08.417Z,17.77
2024-01-19T01:03:36.760Z,16.70
2024-01-19T01:06:05.711Z,16.80
2024-01-19T01:08:37.331Z,12.53
2024-01-19T01:11:05.358Z,17.10
2024-01-19T01:13:34.047Z,14.90
2024-01-19T01:16:02.842Z,17.37
2024-01-19T01:18:31.511Z,15.03
2024-01-19T01:20:59.983Z,16.37
2024-01-19T01:23:28.170Z,15.27
2024-01-19T01:25:57.712Z,17.10
2024-01-19T01:28:25.856Z,12.47
2024-01-19T01:30:54.261Z,13.83
2024-01-19T01:33:23.614Z,16.53
2024-01-19T01:35:52.746Z,17.53
2024-01-19T01:38:21.980Z,17.23
2024-01-19T01:40:50.939Z,19.70
2024-01-19T01:43:24.934Z,14.50
2024-01-19T01:45:53.858Z,15.70
2024-01-19T01:48:24.999Z,17.30
2024-01-19T01:50:54.334Z,18.63
2024-01-19T01:53:23.100Z,16.57
2024-01-19T01:55:52.646Z,16.40
2024-01-19T01:58:23.240Z,13.10
2024-01-19T02:00:54.088Z,13.33
2024-01-19T02:03:22.689Z,12.03
2024-01-19T02:05:51.337Z,16.23
2024-01-19T02:08:19.844Z,13.73
2024-01-19T02:10:48.913Z,17.20
2024-01-19T02:13:18.186Z,12.13
2024-01-19T02:15:48.204Z,17.37
2024-01-19T02:18:16.520Z,15.03
2024-01-19T02:20:44.839Z,14.83
2024-01-19T02:23:15.927Z,16.23
2024-01-19T02:25:45.699Z,12.83
2024-01-19T02:28:14.383Z,14.37
2024-01-19T02:30:43.525Z,15.47
2024-01-19T02:33:12.092Z,16.47
2024-01-19T02:35:40.683Z,22.93
2024-01-19T02:38:08.857Z,20.10
2024-01-19T02:40:37.431Z,17.53
2024-01-19T02:43:07.201Z,15.80
2024-01-19T02:45:35.531Z,15.60
2024-01-19T02:48:03.876Z,14.27
2024-01-19T02:50:32.090Z,18.53
2024-01-19T02:53:00.471Z,18.30
2024-01-19T02:55:28.667Z,14.60
2024-01-19T02:57:57.163Z,16.60
2024-01-19T03:00:26.940Z,13.17
2024-01-19T03:02:55.233Z,16.67
2024-01-19T03:05:23.556Z,11.40
2024-01-19T03:07:51.974Z,11.43
2024-01-19T03:10:20.168Z,9.83
2024-01-19T03:12:48.490Z,13.83
2024-01-19T03:15:16.631Z,8.67
2024-01-19T03:17:46.342Z,11.43
2024-01-19T03:20:14.878Z,9.13
2024-01-19T03:22:43.090Z,8.67
2024-01-19T03:25:11.438Z,11.87
2024-01-19T03:27:39.653Z,9.23
2024-01-19T03:30:08.752Z,8.77
2024-01-19T03:32:37.059Z,14.23
2024-01-19T03:35:06.995Z,9.90
2024-01-19T03:37:35.128Z,12.50
2024-01-19T03:40:04.540Z,9.43
2024-01-19T03:42:32.688Z,10.63
2024-01-19T03:45:01.134Z,14.60
2024-01-19T03:47:30.123Z,10.87
2024-01-19T03:49:58.450Z,10.30
2024-01-19T03:52:28.305Z,9.40
2024-01-19T03:54:56.466Z,13.27
2024-01-19T03:57:24.626Z,7.63
2024-01-19T03:59:52.771Z,9.20
2024-01-19T04:02:20.959Z,10.73
2024-01-19T04:04:49.512Z,16.00
2024-01-19T04:07:18.087Z,8.13
2024-01-19T04:09:47.684Z,9.47
2024-01-19T04:12:17.239Z,11.47
2024-01-19T04:14:47.358Z,10.67
2024-01-19T04:17:15.861Z,11.63
2024-01-19T04:19:44.090Z,9.07
2024-01-19T04:22:12.220Z,10.53
2024-01-19T04:24:40.400Z,7.90
2024-01-19T04:27:10.452Z,10.33
2024-01-19T04:29:38.808Z,11.20
2024-01-19T04:32:07.526Z,8.80
2024-01-19T04:34:35.974Z,10.03
2024-01-19T04:37:04.347Z,13.03
2024-01-19T04:39:32.546Z,13.73
2024-01-19T04:42:00.775Z,12.70
2024-01-19T04:44:30.332Z,10.90
2024-01-19T04:46:58.559Z,10.13
2024-01-19T04:49:26.816Z,10.73
2024-01-19T04:51:55.320Z,9.70
2024-01-19T04:54:23.488Z,7.40
2024-01-19T04:56:51.757Z,9.77
2024-01-19T04:59:19.993Z,12.60
2024-01-19T05:01:49.605Z,10.20
2024-01-19T05:04:17.805Z,10.57
2024-01-19T05:06:46.057Z,10.10
2024-01-19T05:09:15.606Z,11.87
2024-01-19T05:11:43.896Z,8.17
2024-01-19T05:14:12.567Z,10.83
2024-01-19T05:16:40.742Z,13.17
2024-01-19T05:19:10.245Z,12.93
2024-01-19T05:21:38.617Z,11.23
2024-01-19T05:24:07.060Z,9.13
2024-01-19T05:26:35.256Z,10.33
2024-01-19T05:29:03.417Z,10.97
2024-01-19T05:31:31.682Z,7.43
2024-01-19T05:34:00.118Z,9.17
2024-01-19T05:36:29.787Z,7.40
2024-01-19T05:38:58.007Z,8.60
2024-01-19T05:41:26.493Z,7.70
2024-01-19T05:43:54.880Z,9.17
2024-01-19T05:46:22.992Z,8.03
2024-01-19T05:48:51.170Z,6.67
2024-01-19T05:51:20.048Z,8.90
2024-01-19T05:53:49.687Z,7.17
2024-01-19T05:56:17.860Z,8.40
2024-01-19T05:58:46.115Z,9.70
2024-01-19T06:01:14.409Z,7.90
2024-01-19T06:03:43.173Z,9.40
2024-01-19T06:06:11.591Z,8.30
2024-01-19T06:08:39.981Z,5.90
2024-01-19T06:11:09.532Z,9.87
2024-01-19T06:13:37.648Z,12.30
2024-01-19T06:16:05.953Z,8.77
2024-01-19T06:18:35.930Z,8.93
2024-01-19T06:21:04.398Z,10.10
2024-01-19T06:23:32.940Z,9.80
2024-01-19T06:26:01.470Z,10.90
2024-01-19T06:28:30.988Z,7.77
2024-01-19T06:30:59.215Z,6.87
2024-01-19T06:33:27.734Z,9.87
2024-01-19T06:35:56.007Z,6.80
2024-01-19T06:38:24.558Z,7.10
2024-01-19T06:40:53.164Z,10.57
2024-01-19T06:43:21.303Z,8.73
2024-01-19T06:45:51.289Z,6.83
2024-01-19T06:48:19.713Z,5.90
2024-01-19T06:50:48.341Z,10.47
2024-01-19T06:53:17.000Z,8.73
2024-01-19T06:55:45.378Z,7.67
2024-01-19T06:58:13.654Z,6.50
2024-01-19T07:00:41.879Z,7.73
2024-01-19T07:03:11.620Z,7.00
2024-01-19T07:05:43.629Z,7.87
2024-01-19T07:08:12.847Z,8.73
2024-01-19T07:10:41.154Z,8.37
2024-01-19T07:13:09.739Z,11.80
2024-01-19T07:15:38.065Z,7.07
2024-01-19T07:18:06.581Z,11.07
2024-01-19T07:20:36.252Z,9.37
2024-01-19T07:23:04.803Z,11.37
2024-01-19T07:25:32.953Z,11.50
2024-01-19T07:28:01.280Z,9.60
2024-01-19T07:30:29.405Z,9.87
2024-01-19T07:33:06.457Z,8.00
2024-01-19T07:35:39.971Z,6.90
2024-01-19T07:38:08.608Z,10.93
2024-01-19T07:40:36.809Z,11.67
2024-01-19T07:43:05.330Z,11.00
2024-01-19T07:45:33.545Z,6.73
2024-01-19T07:48:00.743Z,7.50
2024-01-19T07:50:29.322Z,6.40
2024-01-19T07:52:58.820Z,8.37
2024-01-19T07:55:26.981Z,11.47
2024-01-19T07:57:55.246Z,6.13
2024-01-19T08:00:23.418Z,7.57
2024-01-19T08:02:51.719Z,7.17
2024-01-19T08:05:20.220Z,9.20
2024-01-19T08:07:48.751Z,7.37
2024-01-19T08:10:19.894Z,8.63
2024-01-19T08:12:48.119Z,7.03
2024-01-19T08:15:16.463Z,9.73
2024-01-19T08:17:44.824Z,12.27
2024-01-19T08:20:13.502Z,9.00
2024-01-19T08:22:41.646Z,8.47
2024-01-19T08:25:11.647Z,8.40
2024-01-19T08:27:43.887Z,7.67
2024-01-19T08:30:13.445Z,6.93
2024-01-19T08:32:41.971Z,10.10
2024-01-19T08:35:10.994Z,9.00
2024-01-19T08:37:40.247Z,10.77
2024-01-19T08:40:10.018Z,8.53
2024-01-19T08:42:38.448Z,8.67
2024-01-19T08:45:09.262Z,9.07
2024-01-19T08:47:38.593Z,7.93
2024-01-19T08:50:08.935Z,7.60
2024-01-19T08:52:37.336Z,8.37
2024-01-19T08:55:06.129Z,8.23
2024-01-19T08:57:34.562Z,7.13
2024-01-19T09:00:05.944Z,7.50
2024-01-19T09:02:36.342Z,6.57
2024-01-19T09:05:06.634Z,8.57
2024-01-19T09:07:34.935Z,11.57
2024-01-19T09:10:04.107Z,9.20
2024-01-19T09:12:32.322Z,8.50
2024-01-19T09:15:00.560Z,8.27
2024-01-19T09:17:28.795Z,7.80
2024-01-19T09:19:58.435Z,6.30
2024-01-19T09:22:28.237Z,10.43
2024-01-19T09:24:56.358Z,7.40
2024-01-19T09:27:24.517Z,9.00
2024-01-19T09:29:52.721Z,8.93
2024-01-19T09:32:21.105Z,11.27
2024-01-19T09:34:49.756Z,8.47
2024-01-19T09:37:19.222Z,10.13
2024-01-19T09:39:47.384Z,11.77
2024-01-19T09:42:23.706Z,9.40
2024-01-19T09:45:02.007Z,10.63
2024-01-19T09:47:37.905Z,7.77
2024-01-19T09:50:07.443Z,10.13
2024-01-19T09:52:50.279Z,24.87
2024-01-19T09:55:21.293Z,8.40
2024-01-19T09:57:50.527Z,9.37
2024-01-19T10:00:20.542Z,9.70
2024-01-19T10:02:50.670Z,10.47
2024-01-19T10:05:20.554Z,11.23
2024-01-19T10:07:54.389Z,9.83
2024-01-19T10:10:22.820Z,8.77
2024-01-19T10:12:51.168Z,17.93
2024-01-19T10:15:19.587Z,9.97
2024-01-19T10:17:48.221Z,11.37
2024-01-19T10:20:17.498Z,10.37
2024-01-19T10:22:45.939Z,13.50
2024-01-19T10:25:16.697Z,9.33
2024-01-19T10:27:47.731Z,11.10
2024-01-19T10:30:19.024Z,7.77
2024-01-19T10:32:49.815Z,9.53
2024-01-19T10:35:19.590Z,8.80
2024-01-19T10:37:48.636Z,10.30
2024-01-19T10:40:27.752Z,11.97
2024-01-19T10:42:58.007Z,8.27
2024-01-19T10:45:28.943Z,10.13
2024-01-19T10:48:00.031Z,7.17
2024-01-19T10:50:29.683Z,8.63
2024-01-19T10:52:59.445Z,7.17
2024-01-19T10:55:30.835Z,9.87
2024-01-19T10:58:13.171Z,7.77
2024-01-19T11:00:43.173Z,9.17
2024-01-19T11:03:11.777Z,8.17
2024-01-19T11:05:40.206Z,11.53
2024-01-19T11:08:08.358Z,9.40
2024-01-19T11:10:37.979Z,5.10
2024-01-19T11:13:10.931Z,8.53
2024-01-19T11:15:45.440Z,9.23
2024-01-19T11:18:15.548Z,8.97
2024-01-19T11:20:43.964Z,6.07
2024-01-19T11:23:12.953Z,9.07
2024-01-19T11:25:59.180Z,7.90
2024-01-19T11:28:36.984Z,6.53
2024-01-19T11:31:14.565Z,6.97
2024-01-19T11:33:43.216Z,8.83
2024-01-19T11:36:12.023Z,9.93
2024-01-19T11:38:50.002Z,8.43
2024-01-19T11:41:49.529Z,10.10
2024-01-19T11:44:44.482Z,7.37
2024-01-19T11:47:40.549Z,7.43
2024-01-19T11:50:11.071Z,7.50
2024-01-19T11:52:41.641Z,7.87
2024-01-19T11:55:39.055Z,8.77
2024-01-19T11:58:43.907Z,8.27
2024-01-19T12:01:14.035Z,7.50
2024-01-19T12:03:43.095Z,11.67
2024-01-19T12:06:11.779Z,10.93
2024-01-19T12:08:40.220Z,9.93
2024-01-19T12:11:10.669Z,7.30
2024-01-19T12:13:48.371Z,11.47
2024-01-19T12:16:24.817Z,11.33
2024-01-19T12:18:56.911Z,12.23
2024-01-19T12:21:26.184Z,8.97
2024-01-19T12:23:56.516Z,7.83
2024-01-19T12:26:25.153Z,8.90
2024-01-19T12:28:54.243Z,9.30
2024-01-19T12:31:25.029Z,8.60
2024-01-19T12:33:54.584Z,8.10
2024-01-19T12:36:27.133Z,9.03
2024-01-19T12:39:12.730Z,6.20
2024-01-19T12:41:41.619Z,10.13
2024-01-19T12:44:10.316Z,15.90
2024-01-19T12:46:48.068Z,11.03
2024-01-19T12:49:16.876Z,9.63
2024-01-19T12:51:45.334Z,13.83
2024-01-19T12:54:16.242Z,8.48
2024-01-19T12:56:45.510Z,11.03
2024-01-19T12:59:17.042Z,9.73
2024-01-19T13:01:49.013Z,6.57
2024-01-19T13:04:17.837Z,8.60
2024-01-19T13:06:46.916Z,7.83
2024-01-19T13:09:17.485Z,8.33
2024-01-19T13:11:45.948Z,8.43
2024-01-19T13:14:15.075Z,6.00
2024-01-19T13:16:56.117Z,9.43
2024-01-19T13:19:24.975Z,11.70
2024-01-19T13:21:56.136Z,7.23
2024-01-19T13:24:26.424Z,7.00
2024-01-19T13:27:02.080Z,6.93
2024-01-19T13:29:30.416Z,10.30
2024-01-19T13:32:00.384Z,7.07
2024-01-19T13:34:29.885Z,9.27
2024-01-19T13:36:58.990Z,9.65
2024-01-19T13:39:28.304Z,7.70
2024-01-19T13:41:56.687Z,10.23
2024-01-19T13:44:25.597Z,8.48
2024-01-19T13:46:54.345Z,13.23
2024-01-19T13:49:24.047Z,9.07
2024-01-19T13:51:52.354Z,8.37
2024-01-19T13:54:20.781Z,9.50
2024-01-19T13:56:49.104Z,9.37
2024-01-19T13:59:17.490Z,7.23
2024-01-19T14:01:47.373Z,9.35
2024-01-19T14:04:16.825Z,11.53
2024-01-19T14:06:47.718Z,13.27
2024-01-19T14:09:16.134Z,9.90
2024-01-19T14:11:47.822Z,10.73
2024-01-19T14:14:17.280Z,11.93
2024-01-19T14:16:45.772Z,12.47
2024-01-19T14:19:14.219Z,8.70
2024-01-19T14:21:42.496Z,7.40
2024-01-19T14:24:12.016Z,5.73
2024-01-19T14:26:41.005Z,9.43
2024-01-19T14:29:08.382Z,10.23
2024-01-19T14:31:36.694Z,8.13
2024-01-19T14:34:04.906Z,9.83
2024-01-19T14:36:33.732Z,12.60
2024-01-19T14:39:01.926Z,14.00
2024-01-19T14:41:34.837Z,10.97
2024-01-19T14:44:04.428Z,9.17
2024-01-19T14:46:34.143Z,12.30
2024-01-19T14:49:03.782Z,9.23
2024-01-19T14:51:32.381Z,9.80
2024-01-19T14:54:02.594Z,9.03
2024-01-19T14:56:32.575Z,9.67
2024-01-19T14:59:00.875Z,9.30
2024-01-19T15:01:29.580Z,11.67
2024-01-19T15:03:57.949Z,11.20
2024-01-19T15:06:25.119Z,9.63
2024-01-19T15:08:53.620Z,11.80
2024-01-19T15:11:21.889Z,10.30
2024-01-19T15:13:53.278Z,12.07
2024-01-19T15:16:23.694Z,11.63
2024-01-19T15:18:51.946Z,11.63
2024-01-19T15:21:20.306Z,13.70
2024-01-19T15:23:48.434Z,11.97
2024-01-19T15:26:18.037Z,12.50
2024-01-19T15:28:46.382Z,11.60
2024-01-19T15:31:22.703Z,11.60
2024-01-19T15:33:51.165Z,12.10
2024-01-19T15:36:19.978Z,13.60
2024-01-19T15:38:48.282Z,13.87
2024-01-19T15:41:23.725Z,13.93
2024-01-19T15:43:51.981Z,13.63
2024-01-19T15:46:25.083Z,16.07
2024-01-19T15:49:02.838Z,12.65
2024-01-19T15:51:34.092Z,16.00
2024-01-19T15:54:03.002Z,16.20
2024-01-19T15:56:37.231Z,14.40
2024-01-19T15:59:07.070Z,14.87
2024-01-19T16:01:39.602Z,14.47
2024-01-19T16:04:08.232Z,12.93
2024-01-19T16:06:36.608Z,13.90
2024-01-19T16:09:05.038Z,18.60
2024-01-19T16:11:35.872Z,13.93
2024-01-19T16:14:04.515Z,11.80
2024-01-19T16:16:33.522Z,15.97
2024-01-19T16:19:04.608Z,16.80
2024-01-19T16:21:32.874Z,14.67
2024-01-19T16:24:01.025Z,16.80
2024-01-19T16:26:29.251Z,12.70
2024-01-19T16:28:57.633Z,16.87
2024-01-19T16:31:25.875Z,17.33
2024-01-19T16:33:54.849Z,16.70
2024-01-19T16:36:25.097Z,22.13
2024-01-19T16:38:53.355Z,19.37
2024-01-19T16:41:21.629Z,17.47
2024-01-19T16:43:50.331Z,21.13
2024-01-19T16:46:21.999Z,20.70
2024-01-19T16:48:50.446Z,18.63
2024-01-19T16:51:18.901Z,21.57
2024-01-19T16:53:48.494Z,20.60
2024-01-19T16:56:16.733Z,20.30
2024-01-19T16:58:45.057Z,23.13
2024-01-19T17:01:13.201Z,19.80
2024-01-19T17:03:44.676Z,20.33
2024-01-19T17:06:13.959Z,20.90
2024-01-19T17:08:44.605Z,18.27
2024-01-19T17:11:14.281Z,18.77
2024-01-19T17:13:42.597Z,18.30
2024-01-19T17:16:12.161Z,17.17
2024-01-19T17:18:41.800Z,20.20
2024-01-19T17:21:10.030Z,19.70
2024-01-19T17:23:39.203Z,17.53
2024-01-19T17:26:07.560Z,19.00
2024-01-19T17:28:38.316Z,18.87
2024-01-19T17:31:06.641Z,22.47
2024-01-19T17:33:36.513Z,18.17
2024-01-19T17:36:13.796Z,23.23
2024-01-19T17:38:43.944Z,20.67
2024-01-19T17:41:12.358Z,22.17
2024-01-19T17:43:42.176Z,19.23
2024-01-19T17:46:11.046Z,19.57
2024-01-19T17:48:39.697Z,18.73
2024-01-19T17:51:08.064Z,23.33
2024-01-19T17:53:36.223Z,18.30
2024-01-19T17:56:04.669Z,18.60
2024-01-19T17:58:32.923Z,16.70
2024-01-19T18:01:03.009Z,17.17
2024-01-19T18:03:31.311Z,21.73
2024-01-19T18:06:00.069Z,17.80
2024-01-19T18:08:30.614Z,19.23
2024-01-19T18:10:59.270Z,17.23
2024-01-19T18:13:27.683Z,16.73
2024-01-19T18:15:55.883Z,16.23
2024-01-19T18:18:31.636Z,25.33
2024-01-19T18:21:04.902Z,16.23
2024-01-19T18:23:34.590Z,19.83
2024-01-19T18:26:03.187Z,14.40
2024-01-19T18:28:31.714Z,17.27
2024-01-19T18:30:59.949Z,17.23
2024-01-19T18:33:29.721Z,16.93
2024-01-19T18:35:58.247Z,18.47
2024-01-19T18:38:26.451Z,16.93
2024-01-19T18:40:54.739Z,17.23
2024-01-19T18:43:23.052Z,18.63
2024-01-19T18:45:51.803Z,18.90
2024-01-19T18:48:20.025Z,18.77
2024-01-19T18:50:49.859Z,15.63
2024-01-19T18:53:18.279Z,18.10
2024-01-19T18:55:51.098Z,17.03
2024-01-19T18:58:19.730Z,17.77
2024-01-19T19:00:48.810Z,20.60
2024-01-19T19:03:17.133Z,21.83
2024-01-19T19:05:45.828Z,21.17
2024-01-19T19:08:16.965Z,19.37
2024-01-19T19:10:45.683Z,19.40
2024-01-19T19:13:14.216Z,20.40
2024-01-19T19:15:42.706Z,19.83
2024-01-19T19:18:14.648Z,17.37
2024-01-19T19:20:43.724Z,20.47
2024-01-19T19:23:12.248Z,19.77
2024-01-19T19:25:41.989Z,19.53
2024-01-19T19:28:10.313Z,22.47
2024-01-19T19:30:38.498Z,18.57
2024-01-19T19:33:06.778Z,18.67
2024-01-19T19:35:34.995Z,18.77
2024-01-19T19:38:03.734Z,17.70
2024-01-19T19:40:32.986Z,19.40
2024-01-19T19:43:05.827Z,20.67
2024-01-19T19:45:35.428Z,16.27
2024-01-19T19:48:05.348Z,16.63
2024-01-19T19:50:33.725Z,18.50
2024-01-19T19:53:01.909Z,17.00
2024-01-19T19:55:30.174Z,23.83
2024-01-19T19:57:58.440Z,18.20
2024-01-19T20:00:28.065Z,17.73
2024-01-19T20:02:56.274Z,21.47
2024-01-19T20:05:25.253Z,19.30
2024-01-19T20:07:53.517Z,15.37
2024-01-19T20:10:21.973Z,17.03
2024-01-19T20:12:50.474Z,22.03
2024-01-19T20:15:19.011Z,15.37
2024-01-19T20:17:49.277Z,17.73
2024-01-19T20:20:19.530Z,19.33
2024-01-19T20:22:48.517Z,17.10
2024-01-19T20:25:16.709Z,17.63
2024-01-19T20:27:45.118Z,16.77
2024-01-19T20:30:14.242Z,15.93
2024-01-19T20:32:42.497Z,17.67
2024-01-19T20:35:12.610Z,19.70
2024-01-19T20:37:43.130Z,22.43
2024-01-19T20:40:13.853Z,16.83
2024-01-19T20:42:42.080Z,15.37
2024-01-19T20:45:13.278Z,20.07
2024-01-19T20:47:41.712Z,15.67
2024-01-19T20:50:11.993Z,16.00
2024-01-19T20:52:40.318Z,17.50
2024-01-19T20:55:09.073Z,18.47
2024-01-19T20:57:37.320Z,16.00
2024-01-19T21:00:07.215Z,17.60
2024-01-19T21:02:35.726Z,17.83
2024-01-19T21:05:06.099Z,17.70
2024-01-19T21:07:36.582Z,14.87
2024-01-19T21:10:06.614Z,16.63
2024-01-19T21:12:37.614Z,15.63
2024-01-19T21:15:10.272Z,18.17
2024-01-19T21:17:40.429Z,19.90
2024-01-19T21:20:10.343Z,16.43
2024-01-19T21:22:40.362Z,15.20
2024-01-19T21:25:09.662Z,16.00
2024-01-19T21:27:40.889Z,17.57
2024-01-19T21:30:11.659Z,14.53
2024-01-19T21:32:40.392Z,13.80
2024-01-19T21:35:09.033Z,19.67
2024-01-19T21:37:37.315Z,17.17
2024-01-19T21:40:09.384Z,12.60
2024-01-19T21:42:44.676Z,12.87
2024-01-19T21:45:14.099Z,15.77
2024-01-19T21:47:43.066Z,18.33
2024-01-19T21:50:12.691Z,14.73
2024-01-19T21:52:42.826Z,15.43
2024-01-19T21:55:13.089Z,13.30
2024-01-19T21:57:41.340Z,16.43
2024-01-19T22:00:12.045Z,14.80
2024-01-19T22:02:47.270Z,13.70
2024-01-19T22:05:56.530Z,14.43
2024-01-19T22:08:26.016Z,15.67
2024-01-19T22:10:56.520Z,16.97
2024-01-19T22:13:24.794Z,14.57
2024-01-19T22:15:53.111Z,15.27
2024-01-19T22:18:21.950Z,17.97
2024-01-19T22:20:50.413Z,20.60
2024-01-19T22:23:18.652Z,15.07
2024-01-19T22:25:46.867Z,17.70
2024-01-19T22:28:16.562Z,13.77
2024-01-19T22:30:45.413Z,13.10
2024-01-19T22:33:13.724Z,15.07
2024-01-19T22:35:42.366Z,13.63
2024-01-19T22:38:12.075Z,20.73
2024-01-19T22:40:40.483Z,16.87
2024-01-19T22:43:14.356Z,11.47
2024-01-19T22:45:46.232Z,16.43
2024-01-19T22:48:15.764Z,15.33
2024-01-19T22:50:44.178Z,15.80
2024-01-19T22:53:12.445Z,15.13
2024-01-19T22:55:40.763Z,14.23
2024-01-19T22:58:09.311Z,14.43
2024-01-19T23:00:37.675Z,16.67
2024-01-19T23:03:07.725Z,13.93
2024-01-19T23:05:35.974Z,16.47
2024-01-19T23:08:04.530Z,13.47
2024-01-19T23:10:32.950Z,16.17
2024-01-19T23:13:01.132Z,13.40
2024-01-19T23:15:30.156Z,17.53
2024-01-19T23:17:58.724Z,11.33
2024-01-19T23:20:28.555Z,13.80
2024-01-19T23:22:57.167Z,15.40
2024-01-19T23:25:30.900Z,14.83
2024-01-19T23:28:07.772Z,8.77
2024-01-19T23:30:36.043Z,14.13
2024-01-19T23:33:05.199Z,17.87
2024-01-19T23:35:35.098Z,13.03
2024-01-19T23:38:03.500Z,13.97
2024-01-19T23:40:31.896Z,18.60
2024-01-19T23:43:00.489Z,17.17
2024-01-19T23:45:28.868Z,14.77
2024-01-19T23:47:57.948Z,14.77
2024-01-19T23:50:26.566Z,13.37
2024-01-19T23:52:56.111Z,11.30
2024-01-19T23:55:24.435Z,17.90
2024-01-19T23:57:52.584Z,14.57
